sensor_id;sensor_type;location;lat;lon;timestamp;pressure;altitude;pressure_sealevel;temperature;humidity
11468;BME280;5790;42.762;23.430;2023-06-22T00:02:19;72412.81;;;-142.66;87.85
11468;BME280;5790;42.762;23.430;2023-06-22T00:04:46;72414.84;;;-142.66;87.60
11468;BME280;5790;42.762;23.430;2023-06-22T00:07:13;72414.84;;;-142.66;86.99
11468;BME280;5790;42.762;23.430;2023-06-22T00:09:42;72465.88;;;-142.66;90.12
11468;BME280;5790;42.762;23.430;2023-06-22T00:12:09;72469.97;;;-142.66;90.50
11468;BME280;5790;42.762;23.430;2023-06-22T00:14:36;72500.56;;;-142.66;92.15
11468;BME280;5790;42.762;23.430;2023-06-22T00:17:03;72504.66;;;-142.66;92.25
11468;BME280;5790;42.762;23.430;2023-06-22T00:19:30;72506.69;;;-142.66;92.17
11468;BME280;5790;42.762;23.430;2023-06-22T00:21:58;72520.97;;;-142.66;92.53
11468;BME280;5790;42.762;23.430;2023-06-22T00:24:25;72516.91;;;-142.66;92.75
11468;BME280;5790;42.762;23.430;2023-06-22T00:26:54;72576.09;;;-142.66;96.25
11468;BME280;5790;42.762;23.430;2023-06-22T00:29:21;72602.63;;;-142.66;98.33
11468;BME280;5790;42.762;23.430;2023-06-22T00:31:48;72616.91;;;-142.66;100.00
11468;BME280;5790;42.762;23.430;2023-06-22T00:34:15;61465.97;;;-142.67;100.00
11468;BME280;5790;42.762;23.430;2023-06-22T00:36:42;61465.97;;;-142.67;100.00
11468;BME280;5790;42.762;23.430;2023-06-22T00:39:09;61465.97;;;-142.67;100.00
11468;BME280;5790;42.762;23.430;2023-06-22T00:41:36;61465.97;;;-142.67;100.00
11468;BME280;5790;42.762;23.430;2023-06-22T00:44:05;61465.97;;;-142.67;100.00
11468;BME280;5790;42.762;23.430;2023-06-22T00:46:34;61465.97;;;-142.67;100.00
11468;BME280;5790;42.762;23.430;2023-06-22T00:49:01;61465.97;;;-142.67;100.00
11468;BME280;5790;42.762;23.430;2023-06-22T00:51:31;61465.97;;;-142.67;100.00
11468;BME280;5790;42.762;23.430;2023-06-22T00:53:58;61465.97;;;-142.67;100.00
11468;BME280;5790;42.762;23.430;2023-06-22T00:56:25;61465.97;;;-142.67;100.00
11468;BME280;5790;42.762;23.430;2023-06-22T00:58:55;61465.97;;;-142.67;100.00
11468;BME280;5790;42.762;23.430;2023-06-22T01:01:26;61465.97;;;-142.67;100.00
11468;BME280;5790;42.762;23.430;2023-06-22T01:03:53;61465.97;;;-142.67;100.00
11468;BME280;5790;42.762;23.430;2023-06-22T01:06:29;61465.97;;;-142.67;100.00
11468;BME280;5790;42.762;23.430;2023-06-22T01:09:08;61465.97;;;-142.67;100.00
11468;BME280;5790;42.762;23.430;2023-06-22T01:11:41;61465.97;;;-142.67;100.00
11468;BME280;5790;42.762;23.430;2023-06-22T01:14:15;61465.97;;;-142.67;100.00
11468;BME280;5790;42.762;23.430;2023-06-22T01:16:48;61465.97;;;-142.67;100.00
11468;BME280;5790;42.762;23.430;2023-06-22T01:19:33;61465.97;;;-142.67;100.00
11468;BME280;5790;42.762;23.430;2023-06-22T01:22:02;61465.97;;;-142.67;100.00
11468;BME280;5790;42.762;23.430;2023-06-22T01:24:33;61465.97;;;-142.67;100.00
11468;BME280;5790;42.762;23.430;2023-06-22T01:27:17;61465.97;;;-142.67;100.00
11468;BME280;5790;42.762;23.430;2023-06-22T01:29:50;61465.97;;;-142.67;100.00
11468;BME280;5790;42.762;23.430;2023-06-22T01:32:18;61465.97;;;-142.67;100.00
11468;BME280;5790;42.762;23.430;2023-06-22T01:34:47;61465.97;;;-142.67;100.00
11468;BME280;5790;42.762;23.430;2023-06-22T01:37:15;61465.97;;;-142.67;100.00
11468;BME280;5790;42.762;23.430;2023-06-22T01:39:42;61465.97;;;-142.67;100.00
11468;BME280;5790;42.762;23.430;2023-06-22T01:42:10;61465.97;;;-142.67;100.00
11468;BME280;5790;42.762;23.430;2023-06-22T01:44:38;61465.97;;;-142.67;100.00
11468;BME280;5790;42.762;23.430;2023-06-22T01:47:07;61465.97;;;-142.67;100.00
11468;BME280;5790;42.762;23.430;2023-06-22T01:49:34;61465.97;;;-142.67;100.00
11468;BME280;5790;42.762;23.430;2023-06-22T01:52:02;61465.97;;;-142.67;100.00
11468;BME280;5790;42.762;23.430;2023-06-22T01:54:29;61465.97;;;-142.67;100.00
11468;BME280;5790;42.762;23.430;2023-06-22T01:56:56;61465.97;;;-142.67;100.00
11468;BME280;5790;42.762;23.430;2023-06-22T01:59:26;61465.97;;;-142.67;100.00
11468;BME280;5790;42.762;23.430;2023-06-22T02:02:01;61465.97;;;-142.67;100.00
11468;BME280;5790;42.762;23.430;2023-06-22T02:04:34;61465.97;;;-142.67;100.00
11468;BME280;5790;42.762;23.430;2023-06-22T02:07:05;61465.97;;;-142.67;100.00
11468;BME280;5790;42.762;23.430;2023-06-22T02:09:35;61465.97;;;-142.67;100.00
11468;BME280;5790;42.762;23.430;2023-06-22T02:12:05;61465.97;;;-142.67;100.00
11468;BME280;5790;42.762;23.430;2023-06-22T02:14:34;61465.97;;;-142.67;100.00
11468;BME280;5790;42.762;23.430;2023-06-22T02:17:03;61465.97;;;-142.67;100.00
11468;BME280;5790;42.762;23.430;2023-06-22T02:19:36;61465.97;;;-142.67;100.00
11468;BME280;5790;42.762;23.430;2023-06-22T02:22:03;61465.97;;;-142.67;100.00
11468;BME280;5790;42.762;23.430;2023-06-22T02:24:30;61465.97;;;-142.67;100.00
11468;BME280;5790;42.762;23.430;2023-06-22T02:26:59;61465.97;;;-142.67;100.00
11468;BME280;5790;42.762;23.430;2023-06-22T02:29:27;61465.97;;;-142.67;100.00
11468;BME280;5790;42.762;23.430;2023-06-22T02:31:54;61465.97;;;-142.67;100.00
11468;BME280;5790;42.762;23.430;2023-06-22T02:34:22;61465.97;;;-142.67;100.00
11468;BME280;5790;42.762;23.430;2023-06-22T02:36:50;61465.97;;;-142.67;100.00
11468;BME280;5790;42.762;23.430;2023-06-22T02:39:19;61465.97;;;-142.67;100.00
11468;BME280;5790;42.762;23.430;2023-06-22T02:41:47;61465.97;;;-142.67;100.00
11468;BME280;5790;42.762;23.430;2023-06-22T02:44:15;61465.97;;;-142.67;100.00
11468;BME280;5790;42.762;23.430;2023-06-22T02:46:42;61465.97;;;-142.67;100.00
11468;BME280;5790;42.762;23.430;2023-06-22T02:49:09;61465.97;;;-142.67;100.00
11468;BME280;5790;42.762;23.430;2023-06-22T02:51:38;61465.97;;;-142.67;100.00
11468;BME280;5790;42.762;23.430;2023-06-22T02:54:07;61465.97;;;-142.67;100.00
11468;BME280;5790;42.762;23.430;2023-06-22T02:56:34;61465.97;;;-142.67;100.00
11468;BME280;5790;42.762;23.430;2023-06-22T02:59:02;61465.97;;;-142.67;100.00
11468;BME280;5790;42.762;23.430;2023-06-22T03:01:29;61465.97;;;-142.67;100.00
11468;BME280;5790;42.762;23.430;2023-06-22T03:04:03;61465.97;;;-142.67;100.00
11468;BME280;5790;42.762;23.430;2023-06-22T03:06:30;61465.97;;;-142.67;100.00
11468;BME280;5790;42.762;23.430;2023-06-22T03:08:59;61465.97;;;-142.67;100.00
11468;BME280;5790;42.762;23.430;2023-06-22T03:11:28;61465.97;;;-142.67;100.00
11468;BME280;5790;42.762;23.430;2023-06-22T03:13:55;61465.97;;;-142.67;100.00
11468;BME280;5790;42.762;23.430;2023-06-22T03:16:22;61465.97;;;-142.67;100.00
11468;BME280;5790;42.762;23.430;2023-06-22T03:18:49;61465.97;;;-142.67;100.00
11468;BME280;5790;42.762;23.430;2023-06-22T03:21:16;61465.97;;;-142.67;100.00
11468;BME280;5790;42.762;23.430;2023-06-22T03:23:43;61465.97;;;-142.67;100.00
11468;BME280;5790;42.762;23.430;2023-06-22T03:26:10;61465.97;;;-142.67;100.00
11468;BME280;5790;42.762;23.430;2023-06-22T03:28:38;61465.97;;;-142.67;100.00
11468;BME280;5790;42.762;23.430;2023-06-22T03:31:05;61465.97;;;-142.67;100.00
11468;BME280;5790;42.762;23.430;2023-06-22T03:33:33;61465.97;;;-142.67;100.00
11468;BME280;5790;42.762;23.430;2023-06-22T03:36:00;61465.97;;;-142.67;100.00
11468;BME280;5790;42.762;23.430;2023-06-22T03:38:27;61465.97;;;-142.67;100.00
11468;BME280;5790;42.762;23.430;2023-06-22T03:40:54;61465.97;;;-142.67;100.00
11468;BME280;5790;42.762;23.430;2023-06-22T03:43:21;61465.97;;;-142.67;100.00
11468;BME280;5790;42.762;23.430;2023-06-22T03:45:49;61465.97;;;-142.67;100.00
11468;BME280;5790;42.762;23.430;2023-06-22T03:48:16;61465.97;;;-142.67;100.00
11468;BME280;5790;42.762;23.430;2023-06-22T03:50:43;61465.97;;;-142.67;100.00
11468;BME280;5790;42.762;23.430;2023-06-22T03:53:10;61465.97;;;-142.67;100.00
11468;BME280;5790;42.762;23.430;2023-06-22T03:55:42;61465.97;;;-142.67;100.00
11468;BME280;5790;42.762;23.430;2023-06-22T03:58:14;61465.97;;;-142.67;100.00
11468;BME280;5790;42.762;23.430;2023-06-22T04:00:41;61465.97;;;-142.67;100.00
11468;BME280;5790;42.762;23.430;2023-06-22T04:03:10;61465.97;;;-142.67;100.00
11468;BME280;5790;42.762;23.430;2023-06-22T04:05:38;61465.97;;;-142.67;100.00
11468;BME280;5790;42.762;23.430;2023-06-22T04:08:05;61465.97;;;-142.67;100.00
11468;BME280;5790;42.762;23.430;2023-06-22T04:10:32;61465.97;;;-142.67;100.00
11468;BME280;5790;42.762;23.430;2023-06-22T04:12:59;61465.97;;;-142.67;100.00
11468;BME280;5790;42.762;23.430;2023-06-22T04:15:27;61465.97;;;-142.67;100.00
11468;BME280;5790;42.762;23.430;2023-06-22T04:17:54;61465.97;;;-142.67;100.00
11468;BME280;5790;42.762;23.430;2023-06-22T04:20:23;61465.97;;;-142.67;100.00
11468;BME280;5790;42.762;23.430;2023-06-22T04:22:51;61465.97;;;-142.67;100.00
11468;BME280;5790;42.762;23.430;2023-06-22T04:25:19;61465.97;;;-142.67;100.00
11468;BME280;5790;42.762;23.430;2023-06-22T04:27:46;61465.97;;;-142.67;100.00
11468;BME280;5790;42.762;23.430;2023-06-22T04:30:13;61465.97;;;-142.67;100.00
11468;BME280;5790;42.762;23.430;2023-06-22T04:32:42;61465.97;;;-142.67;100.00
11468;BME280;5790;42.762;23.430;2023-06-22T04:35:10;61465.97;;;-142.67;100.00
11468;BME280;5790;42.762;23.430;2023-06-22T04:37:39;61465.97;;;-142.67;100.00
11468;BME280;5790;42.762;23.430;2023-06-22T04:40:07;61465.97;;;-142.67;100.00
11468;BME280;5790;42.762;23.430;2023-06-22T04:42:37;61465.97;;;-142.67;100.00
11468;BME280;5790;42.762;23.430;2023-06-22T04:45:05;61465.97;;;-142.67;100.00
11468;BME280;5790;42.762;23.430;2023-06-22T04:47:32;61465.97;;;-142.67;100.00
11468;BME280;5790;42.762;23.430;2023-06-22T04:49:59;61465.97;;;-142.67;100.00
11468;BME280;5790;42.762;23.430;2023-06-22T04:52:31;61465.97;;;-142.67;100.00
11468;BME280;5790;42.762;23.430;2023-06-22T04:54:59;61465.97;;;-142.67;100.00
11468;BME280;5790;42.762;23.430;2023-06-22T04:57:26;61465.97;;;-142.67;100.00
11468;BME280;5790;42.762;23.430;2023-06-22T04:59:58;61465.97;;;-142.67;100.00
11468;BME280;5790;42.762;23.430;2023-06-22T05:02:32;61465.97;;;-142.67;100.00
11468;BME280;5790;42.762;23.430;2023-06-22T05:04:59;61465.97;;;-142.67;100.00
11468;BME280;5790;42.762;23.430;2023-06-22T05:07:33;61465.97;;;-142.67;100.00
11468;BME280;5790;42.762;23.430;2023-06-22T05:10:02;61465.97;;;-142.67;100.00
11468;BME280;5790;42.762;23.430;2023-06-22T05:12:29;61465.97;;;-142.67;100.00
11468;BME280;5790;42.762;23.430;2023-06-22T05:14:56;61465.97;;;-142.67;100.00
11468;BME280;5790;42.762;23.430;2023-06-22T05:17:24;61465.97;;;-142.67;100.00
11468;BME280;5790;42.762;23.430;2023-06-22T05:19:51;61465.97;;;-142.67;100.00
11468;BME280;5790;42.762;23.430;2023-06-22T05:22:18;61465.97;;;-142.67;100.00
11468;BME280;5790;42.762;23.430;2023-06-22T05:24:45;61465.97;;;-142.67;100.00
11468;BME280;5790;42.762;23.430;2023-06-22T05:27:14;61465.97;;;-142.67;100.00
11468;BME280;5790;42.762;23.430;2023-06-22T05:29:41;61465.97;;;-142.67;100.00
11468;BME280;5790;42.762;23.430;2023-06-22T05:32:09;61465.97;;;-142.67;100.00
11468;BME280;5790;42.762;23.430;2023-06-22T05:34:36;61465.97;;;-142.67;100.00
11468;BME280;5790;42.762;23.430;2023-06-22T05:37:04;61465.97;;;-142.67;100.00
11468;BME280;5790;42.762;23.430;2023-06-22T05:39:31;61465.97;;;-142.67;100.00
11468;BME280;5790;42.762;23.430;2023-06-22T05:41:59;61465.97;;;-142.67;100.00
11468;BME280;5790;42.762;23.430;2023-06-22T05:44:27;61465.97;;;-142.67;100.00
11468;BME280;5790;42.762;23.430;2023-06-22T05:46:54;61465.97;;;-142.67;100.00
11468;BME280;5790;42.762;23.430;2023-06-22T05:49:21;61465.97;;;-142.67;100.00
11468;BME280;5790;42.762;23.430;2023-06-22T05:51:50;61465.97;;;-142.67;100.00
11468;BME280;5790;42.762;23.430;2023-06-22T05:54:17;61465.97;;;-142.67;100.00
11468;BME280;5790;42.762;23.430;2023-06-22T05:56:44;61465.97;;;-142.67;100.00
11468;BME280;5790;42.762;23.430;2023-06-22T05:59:13;61465.97;;;-142.67;100.00
11468;BME280;5790;42.762;23.430;2023-06-22T06:01:41;61465.97;;;-142.67;100.00
11468;BME280;5790;42.762;23.430;2023-06-22T06:04:08;61465.97;;;-142.67;100.00
11468;BME280;5790;42.762;23.430;2023-06-22T06:06:35;61465.97;;;-142.67;100.00
11468;BME280;5790;42.762;23.430;2023-06-22T06:09:03;61465.97;;;-142.67;100.00
11468;BME280;5790;42.762;23.430;2023-06-22T06:11:30;61465.97;;;-142.67;100.00
11468;BME280;5790;42.762;23.430;2023-06-22T06:13:57;61465.97;;;-142.67;100.00
11468;BME280;5790;42.762;23.430;2023-06-22T06:16:24;61465.97;;;-142.67;100.00
11468;BME280;5790;42.762;23.430;2023-06-22T06:18:53;61465.97;;;-142.67;100.00
11468;BME280;5790;42.762;23.430;2023-06-22T06:21:21;61465.97;;;-142.67;100.00
11468;BME280;5790;42.762;23.430;2023-06-22T06:23:48;61465.97;;;-142.67;100.00
11468;BME280;5790;42.762;23.430;2023-06-22T06:26:16;61465.97;;;-142.67;100.00
11468;BME280;5790;42.762;23.430;2023-06-22T06:28:43;61465.97;;;-142.67;100.00
11468;BME280;5790;42.762;23.430;2023-06-22T06:31:10;61465.97;;;-142.67;100.00
11468;BME280;5790;42.762;23.430;2023-06-22T06:33:37;61465.97;;;-142.67;100.00
11468;BME280;5790;42.762;23.430;2023-06-22T06:36:06;61465.97;;;-142.67;100.00
11468;BME280;5790;42.762;23.430;2023-06-22T06:38:34;61465.97;;;-142.67;100.00
11468;BME280;5790;42.762;23.430;2023-06-22T06:41:01;61465.97;;;-142.67;100.00
11468;BME280;5790;42.762;23.430;2023-06-22T06:43:28;61465.97;;;-142.67;100.00
11468;BME280;5790;42.762;23.430;2023-06-22T06:45:55;61465.97;;;-142.67;100.00
11468;BME280;5790;42.762;23.430;2023-06-22T06:48:22;61465.97;;;-142.67;100.00
11468;BME280;5790;42.762;23.430;2023-06-22T06:50:49;61465.97;;;-142.67;100.00
11468;BME280;5790;42.762;23.430;2023-06-22T06:53:17;61465.97;;;-142.67;100.00
11468;BME280;5790;42.762;23.430;2023-06-22T06:55:44;61465.97;;;-142.67;100.00
11468;BME280;5790;42.762;23.430;2023-06-22T06:58:12;61465.97;;;-142.67;100.00
11468;BME280;5790;42.762;23.430;2023-06-22T07:00:39;61465.97;;;-142.67;100.00
11468;BME280;5790;42.762;23.430;2023-06-22T07:03:06;61465.97;;;-142.67;100.00
11468;BME280;5790;42.762;23.430;2023-06-22T07:05:33;61465.97;;;-142.67;100.00
11468;BME280;5790;42.762;23.430;2023-06-22T07:08:00;61465.97;;;-142.67;100.00
11468;BME280;5790;42.762;23.430;2023-06-22T07:10:29;61465.97;;;-142.67;100.00
11468;BME280;5790;42.762;23.430;2023-06-22T07:12:56;61465.97;;;-142.67;100.00
11468;BME280;5790;42.762;23.430;2023-06-22T07:15:23;61465.97;;;-142.67;100.00
11468;BME280;5790;42.762;23.430;2023-06-22T07:17:51;61465.97;;;-142.67;100.00
11468;BME280;5790;42.762;23.430;2023-06-22T07:20:18;61465.97;;;-142.67;100.00
11468;BME280;5790;42.762;23.430;2023-06-22T07:22:45;61465.97;;;-142.67;100.00
11468;BME280;5790;42.762;23.430;2023-06-22T07:25:13;61465.97;;;-142.67;100.00
11468;BME280;5790;42.762;23.430;2023-06-22T07:27:45;61465.97;;;-142.67;100.00
11468;BME280;5790;42.762;23.430;2023-06-22T07:30:13;61465.97;;;-142.67;100.00
11468;BME280;5790;42.762;23.430;2023-06-22T07:32:41;61465.97;;;-142.67;100.00
11468;BME280;5790;42.762;23.430;2023-06-22T07:35:08;61465.97;;;-142.67;100.00
11468;BME280;5790;42.762;23.430;2023-06-22T07:37:36;61465.97;;;-142.67;100.00
11468;BME280;5790;42.762;23.430;2023-06-22T07:40:04;61465.97;;;-142.67;100.00
11468;BME280;5790;42.762;23.430;2023-06-22T07:42:31;61465.97;;;-142.67;100.00
11468;BME280;5790;42.762;23.430;2023-06-22T07:45:01;61465.97;;;-142.67;100.00
11468;BME280;5790;42.762;23.430;2023-06-22T07:47:28;61465.97;;;-142.67;100.00
11468;BME280;5790;42.762;23.430;2023-06-22T07:49:55;61465.97;;;-142.67;100.00
11468;BME280;5790;42.762;23.430;2023-06-22T07:52:24;61465.97;;;-142.67;100.00
11468;BME280;5790;42.762;23.430;2023-06-22T07:54:51;61465.97;;;-142.67;100.00
11468;BME280;5790;42.762;23.430;2023-06-22T07:57:18;61465.97;;;-142.67;100.00
11468;BME280;5790;42.762;23.430;2023-06-22T07:59:46;61465.97;;;-142.67;100.00
11468;BME280;5790;42.762;23.430;2023-06-22T08:02:14;61465.97;;;-142.67;100.00
11468;BME280;5790;42.762;23.430;2023-06-22T08:04:41;61465.97;;;-142.67;100.00
11468;BME280;5790;42.762;23.430;2023-06-22T08:07:08;61465.97;;;-142.67;100.00
11468;BME280;5790;42.762;23.430;2023-06-22T08:09:36;61465.97;;;-142.67;100.00
11468;BME280;5790;42.762;23.430;2023-06-22T08:12:03;61465.97;;;-142.67;100.00
11468;BME280;5790;42.762;23.430;2023-06-22T08:14:31;61465.97;;;-142.67;100.00
11468;BME280;5790;42.762;23.430;2023-06-22T08:16:58;61465.97;;;-142.67;100.00
11468;BME280;5790;42.762;23.430;2023-06-22T08:19:26;61465.97;;;-142.67;100.00
11468;BME280;5790;42.762;23.430;2023-06-22T08:21:53;61465.97;;;-142.67;100.00
11468;BME280;5790;42.762;23.430;2023-06-22T08:24:20;61465.97;;;-142.67;100.00
11468;BME280;5790;42.762;23.430;2023-06-22T08:26:49;61465.97;;;-142.67;100.00
11468;BME280;5790;42.762;23.430;2023-06-22T08:29:17;61465.97;;;-142.67;100.00
11468;BME280;5790;42.762;23.430;2023-06-22T08:31:44;61465.97;;;-142.67;100.00
11468;BME280;5790;42.762;23.430;2023-06-22T08:34:11;61465.97;;;-142.67;100.00
11468;BME280;5790;42.762;23.430;2023-06-22T08:36:39;61465.97;;;-142.67;100.00
11468;BME280;5790;42.762;23.430;2023-06-22T08:39:10;61465.97;;;-142.67;100.00
11468;BME280;5790;42.762;23.430;2023-06-22T08:41:37;61465.97;;;-142.67;100.00
11468;BME280;5790;42.762;23.430;2023-06-22T08:44:04;61465.97;;;-142.67;100.00
11468;BME280;5790;42.762;23.430;2023-06-22T08:46:31;61465.97;;;-142.67;100.00
11468;BME280;5790;42.762;23.430;2023-06-22T08:48:59;61465.97;;;-142.67;100.00
11468;BME280;5790;42.762;23.430;2023-06-22T08:51:26;61465.97;;;-142.67;100.00
11468;BME280;5790;42.762;23.430;2023-06-22T08:53:55;61465.97;;;-142.67;100.00
11468;BME280;5790;42.762;23.430;2023-06-22T08:56:23;61465.97;;;-142.67;100.00
11468;BME280;5790;42.762;23.430;2023-06-22T08:58:50;61465.97;;;-142.67;100.00
11468;BME280;5790;42.762;23.430;2023-06-22T09:01:17;61465.97;;;-142.67;100.00
11468;BME280;5790;42.762;23.430;2023-06-22T09:03:44;61465.97;;;-142.67;100.00
11468;BME280;5790;42.762;23.430;2023-06-22T09:06:19;61465.97;;;-142.67;100.00
11468;BME280;5790;42.762;23.430;2023-06-22T09:08:47;61465.97;;;-142.67;100.00
11468;BME280;5790;42.762;23.430;2023-06-22T09:11:16;61465.97;;;-142.67;100.00
11468;BME280;5790;42.762;23.430;2023-06-22T09:13:43;61465.97;;;-142.67;100.00
11468;BME280;5790;42.762;23.430;2023-06-22T09:16:10;61465.97;;;-142.67;100.00
11468;BME280;5790;42.762;23.430;2023-06-22T09:18:37;61465.97;;;-142.67;100.00
11468;BME280;5790;42.762;23.430;2023-06-22T09:21:04;61465.97;;;-142.67;100.00
11468;BME280;5790;42.762;23.430;2023-06-22T09:23:32;61465.97;;;-142.67;100.00
11468;BME280;5790;42.762;23.430;2023-06-22T09:25:59;61465.97;;;-142.67;100.00
11468;BME280;5790;42.762;23.430;2023-06-22T09:28:28;61465.97;;;-142.67;100.00
11468;BME280;5790;42.762;23.430;2023-06-22T09:30:55;61465.97;;;-142.67;100.00
11468;BME280;5790;42.762;23.430;2023-06-22T09:33:23;61465.97;;;-142.67;100.00
11468;BME280;5790;42.762;23.430;2023-06-22T09:35:50;61465.97;;;-142.67;100.00
11468;BME280;5790;42.762;23.430;2023-06-22T09:38:17;61465.97;;;-142.67;100.00
11468;BME280;5790;42.762;23.430;2023-06-22T09:40:45;61465.97;;;-142.67;100.00
11468;BME280;5790;42.762;23.430;2023-06-22T09:43:12;61465.97;;;-142.67;100.00
11468;BME280;5790;42.762;23.430;2023-06-22T09:45:40;61465.97;;;-142.67;100.00
11468;BME280;5790;42.762;23.430;2023-06-22T09:48:07;61465.97;;;-142.67;100.00
11468;BME280;5790;42.762;23.430;2023-06-22T09:50:35;61465.97;;;-142.67;100.00
11468;BME280;5790;42.762;23.430;2023-06-22T09:53:03;61465.97;;;-142.67;100.00
11468;BME280;5790;42.762;23.430;2023-06-22T09:55:30;61465.97;;;-142.67;100.00
11468;BME280;5790;42.762;23.430;2023-06-22T09:57:57;61465.97;;;-142.67;100.00
11468;BME280;5790;42.762;23.430;2023-06-22T10:00:24;61465.97;;;-142.67;100.00
11468;BME280;5790;42.762;23.430;2023-06-22T10:02:53;61465.97;;;-142.67;100.00
11468;BME280;5790;42.762;23.430;2023-06-22T10:05:21;61465.97;;;-142.67;100.00
11468;BME280;5790;42.762;23.430;2023-06-22T10:07:48;61465.97;;;-142.67;100.00
11468;BME280;5790;42.762;23.430;2023-06-22T10:10:16;61465.97;;;-142.67;100.00
11468;BME280;5790;42.762;23.430;2023-06-22T10:12:45;61465.97;;;-142.67;100.00
11468;BME280;5790;42.762;23.430;2023-06-22T10:15:12;61465.97;;;-142.67;100.00
11468;BME280;5790;42.762;23.430;2023-06-22T10:17:40;61465.97;;;-142.67;100.00
11468;BME280;5790;42.762;23.430;2023-06-22T10:20:09;61465.97;;;-142.67;100.00
11468;BME280;5790;42.762;23.430;2023-06-22T10:22:39;61465.97;;;-142.67;100.00
11468;BME280;5790;42.762;23.430;2023-06-22T10:25:07;61465.97;;;-142.67;100.00
11468;BME280;5790;42.762;23.430;2023-06-22T10:27:34;61465.97;;;-142.67;100.00
11468;BME280;5790;42.762;23.430;2023-06-22T10:30:02;61465.97;;;-142.67;100.00
11468;BME280;5790;42.762;23.430;2023-06-22T10:32:30;61465.97;;;-142.67;100.00
11468;BME280;5790;42.762;23.430;2023-06-22T10:34:58;61465.97;;;-142.67;100.00
11468;BME280;5790;42.762;23.430;2023-06-22T10:37:27;61465.97;;;-142.67;100.00
11468;BME280;5790;42.762;23.430;2023-06-22T10:39:54;61465.97;;;-142.67;100.00
11468;BME280;5790;42.762;23.430;2023-06-22T10:42:21;61465.97;;;-142.67;100.00
11468;BME280;5790;42.762;23.430;2023-06-22T10:44:48;61465.97;;;-142.67;100.00
11468;BME280;5790;42.762;23.430;2023-06-22T10:47:15;61465.97;;;-142.67;100.00
11468;BME280;5790;42.762;23.430;2023-06-22T10:49:43;61465.97;;;-142.67;100.00
11468;BME280;5790;42.762;23.430;2023-06-22T10:52:10;61465.97;;;-142.67;100.00
11468;BME280;5790;42.762;23.430;2023-06-22T10:54:38;61465.97;;;-142.67;100.00
11468;BME280;5790;42.762;23.430;2023-06-22T10:57:06;61465.97;;;-142.67;100.00
11468;BME280;5790;42.762;23.430;2023-06-22T10:59:33;61465.97;;;-142.67;100.00
11468;BME280;5790;42.762;23.430;2023-06-22T11:02:03;61465.97;;;-142.67;100.00
11468;BME280;5790;42.762;23.430;2023-06-22T11:04:31;61465.97;;;-142.67;100.00
11468;BME280;5790;42.762;23.430;2023-06-22T11:06:58;61465.97;;;-142.67;100.00
11468;BME280;5790;42.762;23.430;2023-06-22T11:09:25;61465.97;;;-142.67;100.00
11468;BME280;5790;42.762;23.430;2023-06-22T11:11:53;61465.97;;;-142.67;100.00
11468;BME280;5790;42.762;23.430;2023-06-22T11:14:20;61465.97;;;-142.67;100.00
11468;BME280;5790;42.762;23.430;2023-06-22T11:16:48;61465.97;;;-142.67;100.00
11468;BME280;5790;42.762;23.430;2023-06-22T11:19:15;61465.97;;;-142.67;100.00
11468;BME280;5790;42.762;23.430;2023-06-22T11:21:42;61465.97;;;-142.67;100.00
11468;BME280;5790;42.762;23.430;2023-06-22T11:24:09;61465.97;;;-142.67;100.00
11468;BME280;5790;42.762;23.430;2023-06-22T11:26:36;61465.97;;;-142.67;100.00
11468;BME280;5790;42.762;23.430;2023-06-22T11:29:05;61465.97;;;-142.67;100.00
11468;BME280;5790;42.762;23.430;2023-06-22T11:31:34;61465.97;;;-142.67;100.00
11468;BME280;5790;42.762;23.430;2023-06-22T11:34:01;61465.97;;;-142.67;100.00
11468;BME280;5790;42.762;23.430;2023-06-22T11:36:29;61465.97;;;-142.67;100.00
11468;BME280;5790;42.762;23.430;2023-06-22T11:38:58;61465.97;;;-142.67;100.00
11468;BME280;5790;42.762;23.430;2023-06-22T11:41:25;61465.97;;;-142.67;100.00
11468;BME280;5790;42.762;23.430;2023-06-22T11:43:52;61465.97;;;-142.67;100.00
11468;BME280;5790;42.762;23.430;2023-06-22T11:46:21;61465.97;;;-142.67;100.00
11468;BME280;5790;42.762;23.430;2023-06-22T11:48:48;61465.97;;;-142.67;100.00
11468;BME280;5790;42.762;23.430;2023-06-22T11:51:15;61465.97;;;-142.67;100.00
11468;BME280;5790;42.762;23.430;2023-06-22T11:53:42;61465.97;;;-142.67;100.00
11468;BME280;5790;42.762;23.430;2023-06-22T11:56:09;61465.97;;;-142.67;100.00
11468;BME280;5790;42.762;23.430;2023-06-22T11:58:36;61465.97;;;-142.67;100.00
11468;BME280;5790;42.762;23.430;2023-06-22T12:01:03;61465.97;;;-142.67;100.00
11468;BME280;5790;42.762;23.430;2023-06-22T12:03:32;61465.97;;;-142.67;100.00
11468;BME280;5790;42.762;23.430;2023-06-22T12:05:59;61465.97;;;-142.67;100.00
11468;BME280;5790;42.762;23.430;2023-06-22T12:08:26;61465.97;;;-142.67;100.00
11468;BME280;5790;42.762;23.430;2023-06-22T12:10:53;61465.97;;;-142.67;100.00
11468;BME280;5790;42.762;23.430;2023-06-22T12:13:20;61465.97;;;-142.67;100.00
11468;BME280;5790;42.762;23.430;2023-06-22T12:15:48;61465.97;;;-142.67;100.00
11468;BME280;5790;42.762;23.430;2023-06-22T12:18:17;61465.97;;;-142.67;100.00
11468;BME280;5790;42.762;23.430;2023-06-22T12:20:47;61465.97;;;-142.67;100.00
11468;BME280;5790;42.762;23.430;2023-06-22T12:23:15;61465.97;;;-142.67;100.00
11468;BME280;5790;42.762;23.430;2023-06-22T12:25:42;61465.97;;;-142.67;100.00
11468;BME280;5790;42.762;23.430;2023-06-22T12:28:09;61465.97;;;-142.67;100.00
11468;BME280;5790;42.762;23.430;2023-06-22T12:30:36;61465.97;;;-142.67;100.00
11468;BME280;5790;42.762;23.430;2023-06-22T12:33:03;61465.97;;;-142.67;100.00
11468;BME280;5790;42.762;23.430;2023-06-22T12:35:30;61465.97;;;-142.67;100.00